createdAt,value
2023-03-27T00:01:00.706Z,1.70
2023-03-27T00:03:28.663Z,2.10
2023-03-27T00:06:04.273Z,2.45
2023-03-27T00:08:31.743Z,2.47
2023-03-27T00:10:58.829Z,2.40
2023-03-27T00:13:25.798Z,2.30
2023-03-27T00:15:54.413Z,2.33
2023-03-27T00:18:21.878Z,2.80
2023-03-27T00:20:49.334Z,1.92
2023-03-27T00:23:16.520Z,1.60
2023-03-27T00:25:43.233Z,2.08
2023-03-27T00:28:09.965Z,3.15
2023-03-27T00:30:37.978Z,1.60
2023-03-27T00:33:04.984Z,1.90
2023-03-27T00:35:32.453Z,1.67
2023-03-27T00:37:59.231Z,1.50
2023-03-27T00:40:26.063Z,1.55
2023-03-27T00:42:57.767Z,1.90
2023-03-27T00:45:28.880Z,1.50
2023-03-27T00:47:59.186Z,1.23
2023-03-27T00:50:28.584Z,1.20
2023-03-27T00:53:01.267Z,0.82
2023-03-27T00:55:29.126Z,0.75
2023-03-27T00:58:00.233Z,0.70
2023-03-27T01:00:27.314Z,1.83
2023-03-27T01:02:54.145Z,0.55
2023-03-27T01:05:21.534Z,0.57
2023-03-27T01:08:00.512Z,0.60
2023-03-27T01:10:52.790Z,0.60
2023-03-27T01:13:24.191Z,0.60
2023-03-27T01:16:02.968Z,1.33
2023-03-27T01:18:42.027Z,0.75
2023-03-27T01:21:12.277Z,1.05
2023-03-27T01:23:59.425Z,0.80
2023-03-27T01:26:47.554Z,0.90
2023-03-27T01:29:22.301Z,0.95
2023-03-27T01:31:52.224Z,0.73
2023-03-27T01:34:27.820Z,0.93
2023-03-27T01:37:18.849Z,1.00
2023-03-27T01:39:46.179Z,1.02
2023-03-27T01:42:31.086Z,1.50
2023-03-27T01:45:03.135Z,1.55
2023-03-27T01:47:36.099Z,1.48
2023-03-27T01:50:34.125Z,2.03
2023-03-27T01:53:04.319Z,1.40
2023-03-27T01:55:33.369Z,1.88
2023-03-27T01:58:15.053Z,1.85
2023-03-27T02:00:51.603Z,2.33
2023-03-27T02:03:38.125Z,2.33
2023-03-27T02:06:08.950Z,1.48
2023-03-27T02:09:04.636Z,1.70
2023-03-27T02:11:37.169Z,2.78
2023-03-27T02:14:09.692Z,3.08
2023-03-27T02:16:41.404Z,2.08
2023-03-27T02:19:35.257Z,2.70
2023-03-27T02:22:02.417Z,2.67
2023-03-27T02:24:29.760Z,2.20
2023-03-27T02:27:04.344Z,3.38
2023-03-27T02:29:43.094Z,1.70
2023-03-27T02:32:32.667Z,2.65
2023-03-27T02:35:15.516Z,2.45
2023-03-27T02:37:56.768Z,2.58
2023-03-27T02:40:40.005Z,3.40
2023-03-27T02:43:08.520Z,3.25
2023-03-27T02:45:51.276Z,2.97
2023-03-27T02:48:17.951Z,7.10
2023-03-27T02:50:57.278Z,9.68
2023-03-27T02:53:24.887Z,9.38
2023-03-27T02:56:02.149Z,10.10
2023-03-27T02:58:32.400Z,9.50
2023-03-27T03:01:00.157Z,12.30
2023-03-27T03:03:30.662Z,9.70
2023-03-27T03:05:57.870Z,8.85
2023-03-27T03:08:25.490Z,10.00
2023-03-27T03:10:52.138Z,6.97
2023-03-27T03:13:19.746Z,14.20
2023-03-27T03:15:46.870Z,10.75
2023-03-27T03:18:14.766Z,11.18
2023-03-27T03:20:41.566Z,8.98
2023-03-27T03:23:09.212Z,10.38
2023-03-27T03:25:35.995Z,13.70
2023-03-27T03:28:03.034Z,12.85
2023-03-27T03:30:30.456Z,10.90
2023-03-27T03:32:57.546Z,13.85
2023-03-27T03:35:24.950Z,10.50
2023-03-27T03:37:53.002Z,9.95
2023-03-27T03:40:20.206Z,9.38
2023-03-27T03:42:48.329Z,5.35
2023-03-27T03:45:15.542Z,13.15
2023-03-27T03:47:43.142Z,9.02
2023-03-27T03:50:11.132Z,6.75
2023-03-27T03:52:38.216Z,13.13
2023-03-27T03:55:06.111Z,11.77
2023-03-27T03:57:33.194Z,16.73
2023-03-27T03:59:59.932Z,17.58
2023-03-27T04:02:29.655Z,14.77
2023-03-27T04:05:00.239Z,15.60
2023-03-27T04:07:35.795Z,13.20
2023-03-27T04:10:03.980Z,16.30
2023-03-27T04:12:30.802Z,13.82
2023-03-27T04:14:57.580Z,15.65
2023-03-27T04:17:26.558Z,21.23
2023-03-27T04:19:56.240Z,14.52
2023-03-27T04:22:23.468Z,19.55
2023-03-27T04:24:50.972Z,12.75
2023-03-27T04:27:18.290Z,14.43
2023-03-27T04:29:47.536Z,15.23
2023-03-27T04:32:19.345Z,14.57
2023-03-27T04:34:46.943Z,13.35
2023-03-27T04:37:13.773Z,16.23
2023-03-27T04:39:43.046Z,13.05
2023-03-27T04:42:10.758Z,18.25
2023-03-27T04:44:37.886Z,12.63
2023-03-27T04:47:08.987Z,16.98
2023-03-27T04:49:40.592Z,19.08
2023-03-27T04:52:07.477Z,18.20
2023-03-27T04:54:34.731Z,14.05
2023-03-27T04:57:02.287Z,11.68
2023-03-27T04:59:32.036Z,13.85
2023-03-27T05:01:59.632Z,14.20
2023-03-27T05:04:29.077Z,9.95
2023-03-27T05:06:56.664Z,13.40
2023-03-27T05:09:23.593Z,13.50
2023-03-27T05:11:50.807Z,11.93
2023-03-27T05:14:22.357Z,9.57
2023-03-27T05:16:50.682Z,9.60
2023-03-27T05:19:19.557Z,13.55
2023-03-27T05:21:47.223Z,14.93
2023-03-27T05:24:15.542Z,12.98
2023-03-27T05:26:43.176Z,13.40
2023-03-27T05:29:10.120Z,11.50
2023-03-27T05:31:37.493Z,12.25
2023-03-27T05:34:05.796Z,11.35
2023-03-27T05:36:32.547Z,18.58
2023-03-27T05:38:59.333Z,11.15
2023-03-27T05:41:26.032Z,8.07
2023-03-27T05:43:52.750Z,13.80
2023-03-27T05:46:21.287Z,11.77
2023-03-27T05:48:48.685Z,8.57
2023-03-27T05:51:16.122Z,8.57
2023-03-27T05:53:43.230Z,8.52
2023-03-27T05:56:10.618Z,8.55
2023-03-27T05:58:37.436Z,7.53
2023-03-27T06:01:04.564Z,13.68
2023-03-27T06:03:31.576Z,7.85
2023-03-27T06:06:01.144Z,12.80
2023-03-27T06:08:29.597Z,10.65
2023-03-27T06:10:56.523Z,7.32
2023-03-27T06:13:24.341Z,8.15
2023-03-27T06:15:53.563Z,9.57
2023-03-27T06:18:20.327Z,7.95
2023-03-27T06:20:47.042Z,11.88
2023-03-27T06:23:13.838Z,6.93
2023-03-27T06:25:40.537Z,10.32
2023-03-27T06:28:09.882Z,10.05
2023-03-27T06:30:39.524Z,8.48
2023-03-27T06:33:07.780Z,8.48
2023-03-27T06:35:35.453Z,11.77
2023-03-27T06:38:05.181Z,7.28
2023-03-27T06:40:35.120Z,12.40
2023-03-27T06:43:04.405Z,8.75
2023-03-27T06:45:33.432Z,11.77
2023-03-27T06:48:17.276Z,8.38
2023-03-27T06:50:48.352Z,8.05
2023-03-27T06:53:26.737Z,7.07
2023-03-27T06:55:55.590Z,10.07
2023-03-27T06:58:22.698Z,12.15
2023-03-27T07:00:49.852Z,12.75
2023-03-27T07:03:18.288Z,6.43
2023-03-27T07:05:45.625Z,7.00
2023-03-27T07:10:56.325Z,12.60
2023-03-27T07:13:34.436Z,15.18
2023-03-27T07:16:04.580Z,10.98
2023-03-27T07:18:31.527Z,9.48
2023-03-27T07:21:02.564Z,9.35
2023-03-27T07:23:34.602Z,12.32
2023-03-27T07:26:21.087Z,6.45
2023-03-27T07:29:00.882Z,7.90
2023-03-27T07:31:46.130Z,10.45
2023-03-27T07:34:16.249Z,9.23
2023-03-27T07:36:43.448Z,7.63
2023-03-27T07:39:12.603Z,6.50
2023-03-27T07:41:39.691Z,7.05
2023-03-27T07:44:06.477Z,5.00
2023-03-27T07:46:33.355Z,5.95
2023-03-27T07:49:00.716Z,5.80
2023-03-27T07:51:27.853Z,11.52
2023-03-27T07:53:56.636Z,7.65
2023-03-27T07:56:23.600Z,8.07
2023-03-27T07:58:51.683Z,6.40
2023-03-27T08:01:18.510Z,8.75
2023-03-27T08:03:47.430Z,9.07
2023-03-27T08:06:14.329Z,9.85
2023-03-27T08:08:41.542Z,12.73
2023-03-27T08:11:19.441Z,5.97
2023-03-27T08:13:50.181Z,10.00
2023-03-27T08:16:18.431Z,5.88
2023-03-27T08:18:46.973Z,9.43
2023-03-27T08:21:13.672Z,11.68
2023-03-27T08:23:41.153Z,6.15
2023-03-27T08:26:08.017Z,7.47
2023-03-27T08:28:35.852Z,5.80
2023-03-27T08:31:09.278Z,7.40
2023-03-27T08:33:36.649Z,14.38
2023-03-27T08:36:05.188Z,9.48
2023-03-27T08:38:33.711Z,10.50
2023-03-27T08:41:01.264Z,10.48
2023-03-27T08:43:41.979Z,8.13
2023-03-27T08:46:19.868Z,7.53
2023-03-27T08:48:59.480Z,9.05
2023-03-27T08:51:33.917Z,7.82
2023-03-27T08:54:08.827Z,6.03
2023-03-27T08:56:35.655Z,8.43
2023-03-27T08:59:02.609Z,6.55
2023-03-27T09:01:37.340Z,4.72
2023-03-27T09:04:22.886Z,5.82
2023-03-27T09:07:08.005Z,8.77
2023-03-27T09:09:46.917Z,4.60
2023-03-27T09:12:27.164Z,6.57
2023-03-27T09:15:00.195Z,5.72
2023-03-27T09:17:31.118Z,8.00
2023-03-27T09:20:07.200Z,8.93
2023-03-27T09:22:44.210Z,5.95
2023-03-27T09:25:23.620Z,6.97
2023-03-27T09:27:50.844Z,5.15
2023-03-27T09:30:27.204Z,5.47
2023-03-27T09:32:59.662Z,9.32
2023-03-27T09:35:26.409Z,7.43
2023-03-27T09:38:07.161Z,8.05
2023-03-27T09:40:43.388Z,6.45
2023-03-27T09:43:17.936Z,4.03
2023-03-27T09:45:45.112Z,4.60
2023-03-27T09:48:17.175Z,8.00
2023-03-27T09:50:54.019Z,3.53
2023-03-27T09:53:23.116Z,8.48
2023-03-27T09:56:05.530Z,5.68
2023-03-27T09:58:44.206Z,7.43
2023-03-27T10:01:16.241Z,5.70
2023-03-27T10:03:49.204Z,8.77
2023-03-27T10:06:26.375Z,2.83
2023-03-27T10:08:55.579Z,4.70
2023-03-27T10:11:33.144Z,8.63
2023-03-27T10:14:01.106Z,6.93
2023-03-27T10:16:28.075Z,2.53
2023-03-27T10:18:57.098Z,5.15
2023-03-27T10:21:26.304Z,9.10
2023-03-27T10:23:59.996Z,6.80
2023-03-27T10:26:27.725Z,7.40
2023-03-27T10:28:58.802Z,5.18
2023-03-27T10:31:40.228Z,7.97
2023-03-27T10:34:27.891Z,4.97
2023-03-27T10:36:55.774Z,9.18
2023-03-27T10:39:27.098Z,6.72
2023-03-27T10:41:53.991Z,5.10
2023-03-27T10:44:21.447Z,4.88
2023-03-27T10:46:48.310Z,4.10
2023-03-27T10:49:51.770Z,8.75
2023-03-27T10:52:49.042Z,3.40
2023-03-27T10:55:29.106Z,6.05
2023-03-27T10:57:57.842Z,7.10
2023-03-27T11:00:56.444Z,5.80
2023-03-27T11:03:39.959Z,3.42
2023-03-27T11:08:56.898Z,8.77
2023-03-27T11:11:32.135Z,6.70
2023-03-27T11:14:02.521Z,7.38
2023-03-27T11:16:55.678Z,3.67
2023-03-27T11:19:34.865Z,4.53
2023-03-27T11:22:32.363Z,3.45
2023-03-27T11:25:27.252Z,4.22
2023-03-27T11:27:58.586Z,5.88
2023-03-27T11:30:44.831Z,9.23
2023-03-27T11:33:24.404Z,4.55
2023-03-27T11:36:04.490Z,1.77
2023-03-27T11:38:34.424Z,3.40
2023-03-27T11:41:01.971Z,5.15
2023-03-27T11:43:28.758Z,2.90
2023-03-27T11:46:14.515Z,3.50
2023-03-27T11:48:51.015Z,5.55
2023-03-27T11:51:37.008Z,4.85
2023-03-27T11:54:13.503Z,4.68
2023-03-27T11:56:58.124Z,4.03
2023-03-27T11:59:51.387Z,13.98
2023-03-27T12:02:34.556Z,5.10
2023-03-27T12:07:59.558Z,4.65
2023-03-27T12:10:31.969Z,3.38
2023-03-27T12:13:21.561Z,6.15
2023-03-27T12:16:03.959Z,3.92
2023-03-27T12:18:37.626Z,4.22
2023-03-27T12:21:25.680Z,4.90
2023-03-27T12:24:07.797Z,12.00
2023-03-27T12:26:58.855Z,3.65
2023-03-27T12:29:33.902Z,4.10
2023-03-27T12:32:22.587Z,7.55
2023-03-27T12:34:55.701Z,4.32
2023-03-27T12:40:00.059Z,4.43
2023-03-27T12:42:43.846Z,4.35
2023-03-27T12:48:11.952Z,4.28
2023-03-27T12:50:45.873Z,2.75
2023-03-27T12:53:25.298Z,2.25
2023-03-27T12:56:16.308Z,3.40
2023-03-27T12:58:53.189Z,2.90
2023-03-27T13:01:51.708Z,4.00
2023-03-27T13:04:57.140Z,2.42
2023-03-27T13:07:30.181Z,4.03
2023-03-27T13:12:38.027Z,8.13
2023-03-27T13:15:42.433Z,5.80
2023-03-27T13:18:32.646Z,3.33
2023-03-27T13:21:23.241Z,4.38
2023-03-27T13:24:19.189Z,3.78
2023-03-27T13:26:51.939Z,2.97
2023-03-27T13:29:31.939Z,5.68
2023-03-27T13:32:20.595Z,2.47
2023-03-27T13:35:02.108Z,9.38
2023-03-27T13:37:36.965Z,7.20
2023-03-27T13:40:31.263Z,3.75
2023-03-27T13:43:02.801Z,4.05
2023-03-27T13:45:37.282Z,8.77
2023-03-27T13:48:28.876Z,5.45
2023-03-27T13:51:33.287Z,3.75
2023-03-27T13:54:27.912Z,4.07
2023-03-27T13:57:16.535Z,4.95
2023-03-27T13:59:52.057Z,5.50
2023-03-27T14:02:41.825Z,3.97
2023-03-27T14:05:21.956Z,3.25
2023-03-27T14:08:04.733Z,1.85
2023-03-27T14:10:57.076Z,4.57
2023-03-27T14:14:01.706Z,5.30
2023-03-27T14:17:01.926Z,6.45
2023-03-27T14:19:41.329Z,2.50
2023-03-27T14:22:20.573Z,2.20
2023-03-27T14:24:56.067Z,2.92
2023-03-27T14:27:23.062Z,3.83
2023-03-27T14:30:15.873Z,2.08
2023-03-27T14:32:44.040Z,2.25
2023-03-27T14:35:30.585Z,4.97
2023-03-27T14:38:02.104Z,2.80
2023-03-27T14:40:32.078Z,3.08
2023-03-27T14:43:00.881Z,2.75
2023-03-27T14:45:32.852Z,3.88
2023-03-27T14:48:03.218Z,6.90
2023-03-27T14:50:30.559Z,5.63
2023-03-27T14:52:58.402Z,5.68
2023-03-27T14:55:32.443Z,5.35
2023-03-27T14:58:00.884Z,4.72
2023-03-27T15:00:28.437Z,2.25
2023-03-27T15:02:55.464Z,5.95
2023-03-27T15:05:22.870Z,6.35
2023-03-27T15:07:49.813Z,3.38
2023-03-27T15:10:24.533Z,2.05
2023-03-27T15:12:52.013Z,7.85
2023-03-27T15:15:34.969Z,2.83
2023-03-27T15:18:05.325Z,4.00
2023-03-27T15:20:34.260Z,3.40
2023-03-27T15:23:13.112Z,4.55
2023-03-27T15:25:44.656Z,3.53
2023-03-27T15:28:24.612Z,2.50
2023-03-27T15:30:52.807Z,6.07
2023-03-27T15:33:29.316Z,1.88
2023-03-27T15:35:56.412Z,1.05
2023-03-27T15:38:26.586Z,1.48
2023-03-27T15:41:03.133Z,2.60
2023-03-27T15:43:30.683Z,4.53
2023-03-27T15:46:02.728Z,2.75
2023-03-27T15:48:31.056Z,3.40
2023-03-27T15:51:06.229Z,4.93
2023-03-27T15:53:37.436Z,1.52
2023-03-27T15:56:16.954Z,5.57
2023-03-27T15:59:02.420Z,5.80
2023-03-27T16:01:33.320Z,2.67
2023-03-27T16:04:04.995Z,3.75
2023-03-27T16:06:36.628Z,2.38
2023-03-27T16:09:24.484Z,1.70
2023-03-27T16:11:52.952Z,4.10
2023-03-27T16:14:44.784Z,1.77
2023-03-27T16:17:20.943Z,3.78
2023-03-27T16:19:55.051Z,2.10
2023-03-27T16:22:23.876Z,3.03
2023-03-27T16:24:50.691Z,5.47
2023-03-27T16:27:23.746Z,2.65
2023-03-27T16:32:19.043Z,3.30
2023-03-27T16:34:47.853Z,5.38
2023-03-27T16:37:15.868Z,2.97
2023-03-27T16:39:43.195Z,4.05
2023-03-27T16:42:24.112Z,2.95
2023-03-27T16:44:53.256Z,2.83
2023-03-27T16:47:20.646Z,4.18
2023-03-27T16:49:56.240Z,1.95
2023-03-27T16:52:27.620Z,2.25
2023-03-27T16:54:54.757Z,1.90
2023-03-27T16:57:21.567Z,3.05
2023-03-27T16:59:48.314Z,2.20
2023-03-27T17:02:15.163Z,1.65
2023-03-27T17:04:44.130Z,1.80
2023-03-27T17:07:11.245Z,3.45
2023-03-27T17:09:38.173Z,1.95
2023-03-27T17:12:05.171Z,1.50
2023-03-27T17:14:31.955Z,1.77
2023-03-27T17:16:58.675Z,1.92
2023-03-27T17:19:25.599Z,2.90
2023-03-27T17:21:52.303Z,1.73
2023-03-27T17:24:20.002Z,1.55
2023-03-27T17:26:46.789Z,3.40
2023-03-27T17:29:13.863Z,4.13
2023-03-27T17:31:40.701Z,3.00
2023-03-27T17:34:08.104Z,2.20
2023-03-27T17:36:43.156Z,3.47
2023-03-27T17:39:14.169Z,2.25
2023-03-27T17:41:41.057Z,7.78
2023-03-27T17:44:10.002Z,2.88
2023-03-27T17:46:36.982Z,2.42
2023-03-27T17:49:04.053Z,4.47
2023-03-27T17:51:30.802Z,3.08
2023-03-27T17:53:57.574Z,2.45
2023-03-27T17:56:24.677Z,3.70
2023-03-27T17:58:51.486Z,2.55
2023-03-27T18:01:23.010Z,1.95
2023-03-27T18:03:52.036Z,2.38
2023-03-27T18:06:22.006Z,6.28
2023-03-27T18:08:52.996Z,3.70
2023-03-27T18:11:19.905Z,3.40
2023-03-27T18:13:53.060Z,4.40
2023-03-27T18:16:20.408Z,2.65
2023-03-27T18:18:47.662Z,3.63
2023-03-27T18:21:16.199Z,3.50
2023-03-27T18:23:46.077Z,7.10
2023-03-27T18:26:14.050Z,4.18
2023-03-27T18:28:40.865Z,4.88
2023-03-27T18:31:09.377Z,3.80
2023-03-27T18:33:36.278Z,4.35
2023-03-27T18:36:04.307Z,5.43
2023-03-27T18:38:31.176Z,5.07
2023-03-27T18:41:00.092Z,3.70
2023-03-27T18:43:27.154Z,5.40
2023-03-27T18:45:58.516Z,5.60
2023-03-27T18:48:26.476Z,6.05
2023-03-27T18:50:57.765Z,6.05
2023-03-27T18:53:24.827Z,7.55
2023-03-27T18:55:52.624Z,5.15
2023-03-27T18:58:19.997Z,3.42
2023-03-27T19:00:46.766Z,2.85
2023-03-27T19:03:15.598Z,4.70
2023-03-27T19:05:42.362Z,3.90
2023-03-27T19:08:09.102Z,3.30
2023-03-27T19:10:36.297Z,3.75
2023-03-27T19:13:03.713Z,6.15
2023-03-27T19:15:30.838Z,7.10
2023-03-27T19:17:57.813Z,4.30
2023-03-27T19:20:26.118Z,4.75
2023-03-27T19:22:53.076Z,3.22
2023-03-27T19:25:20.185Z,4.43
2023-03-27T19:27:47.167Z,6.05
2023-03-27T19:30:14.742Z,2.20
2023-03-27T19:32:41.769Z,2.47
2023-03-27T19:35:09.511Z,3.05
2023-03-27T19:37:36.968Z,3.70
2023-03-27T19:40:05.516Z,3.72
2023-03-27T19:42:32.482Z,3.17
2023-03-27T19:44:59.252Z,1.95
2023-03-27T19:47:26.008Z,5.38
2023-03-27T19:49:53.759Z,4.43
2023-03-27T19:52:20.535Z,5.05
2023-03-27T19:54:47.696Z,2.05
2023-03-27T19:57:14.893Z,3.88
2023-03-27T19:59:41.696Z,2.97
2023-03-27T20:02:11.422Z,4.82
2023-03-27T20:04:38.249Z,4.35
2023-03-27T20:07:07.173Z,1.90
2023-03-27T20:09:34.516Z,3.00
2023-03-27T20:12:01.880Z,2.70
2023-03-27T20:14:28.643Z,4.10
2023-03-27T20:16:55.475Z,3.63
2023-03-27T20:19:28.308Z,3.17
2023-03-27T20:21:55.693Z,3.53
2023-03-27T20:24:22.509Z,3.08
2023-03-27T20:26:53.223Z,3.35
2023-03-27T20:29:22.204Z,4.18
2023-03-27T20:31:49.342Z,4.72
2023-03-27T20:34:20.155Z,2.65
2023-03-27T20:36:47.830Z,3.80
2023-03-27T20:39:17.837Z,4.18
2023-03-27T20:41:47.187Z,3.90
2023-03-27T20:44:17.237Z,3.75
2023-03-27T20:46:52.221Z,5.28
2023-03-27T20:51:59.887Z,5.72
2023-03-27T20:54:27.564Z,5.90
2023-03-27T20:56:54.490Z,3.85
2023-03-27T20:59:21.767Z,3.55
2023-03-27T21:01:48.914Z,2.45
2023-03-27T21:04:16.051Z,5.50
2023-03-27T21:06:43.270Z,6.10
2023-03-27T21:09:14.556Z,3.42
2023-03-27T21:11:42.494Z,5.03
2023-03-27T21:14:09.395Z,6.03
2023-03-27T21:16:37.832Z,3.10
2023-03-27T21:19:04.825Z,4.75
2023-03-27T21:21:32.167Z,4.15
2023-03-27T21:23:59.029Z,2.85
2023-03-27T21:26:25.802Z,3.95
2023-03-27T21:28:52.937Z,3.45
2023-03-27T21:31:20.511Z,3.92
2023-03-27T21:33:47.248Z,4.05
2023-03-27T21:36:14.081Z,3.83
2023-03-27T21:38:40.913Z,3.63
2023-03-27T21:41:07.831Z,2.75
2023-03-27T21:43:34.706Z,3.38
2023-03-27T21:46:03.724Z,3.88
2023-03-27T21:48:31.450Z,2.72
2023-03-27T21:51:01.115Z,2.33
2023-03-27T21:53:28.224Z,4.85
2023-03-27T21:55:55.068Z,3.90
2023-03-27T21:58:21.814Z,5.28
2023-03-27T22:00:48.511Z,3.15
2023-03-27T22:03:15.708Z,2.63
2023-03-27T22:05:42.501Z,4.45
2023-03-27T22:08:09.252Z,5.72
2023-03-27T22:10:36.375Z,2.22
2023-03-27T22:13:03.610Z,2.70
2023-03-27T22:15:30.504Z,2.90
2023-03-27T22:17:57.374Z,6.65
2023-03-27T22:20:24.271Z,3.85
2023-03-27T22:22:51.118Z,3.85
2023-03-27T22:25:18.089Z,3.00
2023-03-27T22:27:46.500Z,6.85
2023-03-27T22:30:13.747Z,3.13
2023-03-27T22:32:41.946Z,5.18
2023-03-27T22:35:09.362Z,3.85
2023-03-27T22:37:37.036Z,7.70
2023-03-27T22:40:04.589Z,4.22
2023-03-27T22:42:31.436Z,5.30
2023-03-27T22:44:58.317Z,2.95
2023-03-27T22:47:25.581Z,2.78
2023-03-27T22:49:52.376Z,4.15
2023-03-27T22:52:19.128Z,3.90
2023-03-27T22:54:46.058Z,4.93
2023-03-27T22:57:12.863Z,3.00
2023-03-27T22:59:39.599Z,4.10
2023-03-27T23:02:06.544Z,6.45
2023-03-27T23:04:33.336Z,6.53
2023-03-27T23:07:01.438Z,6.13
2023-03-27T23:09:28.201Z,5.35
2023-03-27T23:11:54.954Z,5.30
2023-03-27T23:14:21.672Z,5.72
2023-03-27T23:16:48.416Z,6.88
2023-03-27T23:19:15.849Z,4.05
2023-03-27T23:21:42.699Z,2.72
2023-03-27T23:24:09.410Z,6.75
2023-03-27T23:26:36.218Z,6.93
2023-03-27T23:29:02.968Z,2.72
2023-03-27T23:31:29.721Z,7.85
2023-03-27T23:33:56.516Z,5.03
2023-03-27T23:36:24.459Z,4.75
2023-03-27T23:38:51.783Z,4.93
2023-03-27T23:41:19.265Z,5.60
2023-03-27T23:43:46.171Z,7.28
2023-03-27T23:46:13.266Z,2.92
2023-03-27T23:48:42.073Z,4.38
2023-03-27T23:51:09.458Z,5.88
2023-03-27T23:53:36.527Z,4.47
2023-03-27T23:56:03.604Z,3.92
2023-03-27T23:58:32.759Z,5.82
